Time;durP1;ratioP1;P1;durP2;ratioP2;P2;SDS_P1;SDS_P2;PMS_P1;PMS_P2;Temp;Humidity;BMP_temperature;BMP_pressure;BME280_temperature;BME280_humidity;BME280_pressure;Samples;Min_cycle;Max_cycle;Signal;HPM_P1;HPM_P2
2022/07/06 00:01:18;;;;;;;6.53;1.93;;;18.60;58.90;;;21.47;45.47;102209.81;5093052;28;20208;-63
2022/07/06 00:03:45;;;;;;;2.73;1.40;;;18.60;59.10;;;21.47;45.90;102212.50;5094025;28;20187;-61
2022/07/06 00:06:20;;;;;;;2.30;1.60;;;18.60;59.20;;;21.48;45.74;102214.16;5094204;28;20207;-63
2022/07/06 00:08:48;;;;;;;2.20;1.17;;;18.60;59.20;;;21.50;45.21;102220.13;5092822;28;20185;-64
2022/07/06 00:11:16;;;;;;;3.67;2.10;;;18.60;59.30;;;21.53;45.79;102218.88;5093003;28;20216;-64
2022/07/06 00:13:45;;;;;;;3.97;1.40;;;18.70;59.50;;;21.57;45.17;102215.56;5093712;28;20188;-64
2022/07/06 00:16:12;;;;;;;6.03;1.63;;;18.70;59.50;;;21.58;45.70;102222.56;5093917;28;20192;-64
2022/07/06 00:18:40;;;;;;;4.17;1.60;;;18.70;59.50;;;21.58;45.16;102211.84;5093522;28;20192;-64
2022/07/06 00:21:07;;;;;;;3.90;1.77;;;18.70;59.50;;;21.58;45.74;102211.84;5094251;28;20212;-64
2022/07/06 00:23:35;;;;;;;3.17;1.50;;;18.70;59.50;;;21.58;45.42;102211.84;5093793;28;20232;-64
2022/07/06 00:26:05;;;;;;;2.40;1.53;;;18.70;59.40;;;21.57;45.66;102215.56;5093333;28;20233;-62
2022/07/06 00:28:32;;;;;;;3.60;1.50;;;18.70;59.50;;;21.58;45.03;102221.75;5093612;28;20200;-62
2022/07/06 00:31:01;;;;;;;3.60;1.60;;;18.70;59.50;;;21.57;45.60;102220.94;5092967;28;20227;-63
2022/07/06 00:33:30;;;;;;;4.60;1.50;;;18.70;59.50;;;21.58;45.68;102222.56;5093924;28;20220;-63
2022/07/06 00:35:57;;;;;;;3.30;1.60;;;18.70;59.60;;;21.60;45.74;102219.69;5093331;28;20492;-64
2022/07/06 00:38:24;;;;;;;1.73;1.40;;;18.70;60.20;;;21.59;45.81;102216.19;5093590;28;20524;-64
2022/07/06 00:40:52;;;;;;;2.77;1.47;;;18.70;59.60;;;21.58;45.84;102219.88;5092965;28;20188;-63
2022/07/06 00:43:19;;;;;;;1.63;1.33;;;18.70;59.70;;;21.58;45.75;102219.88;5093016;28;20291;-63
2022/07/06 00:45:47;;;;;;;2.93;1.10;;;18.70;59.80;;;21.56;45.84;102213.91;5093739;28;20203;-63
2022/07/06 00:48:16;;;;;;;3.97;1.60;;;18.70;59.80;;;21.58;45.62;102211.84;5093725;28;20718;-63
2022/07/06 00:50:44;;;;;;;5.50;1.63;;;18.70;59.90;;;21.59;46.15;102216.19;5092753;28;20543;-63
2022/07/06 00:53:13;;;;;;;2.63;1.40;;;18.70;59.90;;;21.64;45.77;102214.72;5093425;28;20600;-63
2022/07/06 00:55:41;;;;;;;3.90;1.40;;;18.70;59.90;;;21.65;45.43;102211.84;5096541;28;20192;-63
2022/07/06 00:58:09;;;;;;;5.73;1.80;;;18.70;59.90;;;21.67;45.85;102208.94;5096893;28;20200;-63
2022/07/06 01:00:38;;;;;;;4.87;1.50;;;18.70;59.90;;;21.67;45.44;102214.28;5097574;28;20276;-62
2022/07/06 01:03:05;;;;;;;3.67;1.37;;;18.70;59.90;;;21.67;45.88;102217.81;5097353;28;20188;-63
2022/07/06 01:05:34;;;;;;;2.63;1.40;;;18.70;59.90;;;21.68;45.71;102215.97;5097136;28;20206;-63
2022/07/06 01:08:02;;;;;;;3.80;1.60;;;18.70;59.90;;;21.69;45.76;102222.94;5097229;28;20184;-63
2022/07/06 01:10:29;;;;;;;4.90;1.50;;;18.80;60.90;;;21.68;46.03;102218.63;5096688;28;20188;-64
2022/07/06 01:12:57;;;;;;;2.10;1.40;;;18.70;60.10;;;21.66;46.02;102218.00;5096406;28;20591;-64
2022/07/06 01:15:25;;;;;;;3.47;1.37;;;18.80;60.30;;;21.64;45.62;102214.72;5096216;28;20655;-63
2022/07/06 01:17:53;;;;;;;2.93;1.30;;;18.70;60.20;;;21.61;46.04;102220.53;5096498;28;20193;-64
2022/07/06 01:20:25;;;;;;;1.97;1.47;;;18.70;60.30;;;21.59;45.80;102218.03;5096720;28;20708;-64
2022/07/06 01:22:55;;;;;;;2.27;1.27;;;18.70;60.50;;;21.57;45.80;102214.75;5096935;28;20232;-64
2022/07/06 01:25:23;;;;;;;4.10;1.60;;;18.70;60.60;;;21.56;46.02;102213.91;5096984;28;20543;-63
2022/07/06 01:27:50;;;;;;;2.70;1.63;;;18.70;60.80;;;21.55;45.96;102211.44;5096941;28;20188;-63
2022/07/06 01:30:19;;;;;;;5.23;1.60;;;18.70;60.70;;;21.54;46.46;102205.25;5096546;28;20617;-63
2022/07/06 01:32:47;;;;;;;3.70;1.67;;;18.70;60.80;;;21.54;46.26;102210.63;5096168;28;20221;-64
2022/07/06 01:35:16;;;;;;;4.97;1.40;;;18.60;60.70;;;21.54;46.16;102204.44;5097564;28;20191;-63
2022/07/06 01:37:44;;;;;;;3.30;1.57;;;18.70;61.20;;;21.52;46.32;102204.66;5097599;28;20520;-63
2022/07/06 01:40:13;;;;;;;6.00;2.00;;;18.70;61.10;;;21.51;46.80;102211.03;5097389;28;20219;-63
2022/07/06 01:42:41;;;;;;;4.50;1.30;;;18.60;61.00;;;21.52;46.72;102201.97;5097254;28;20205;-63
2022/07/06 01:45:10;;;;;;;2.30;1.50;;;18.60;61.00;;;21.50;46.24;102201.38;5097628;28;20540;-63
2022/07/06 01:47:37;;;;;;;5.47;1.70;;;18.60;61.10;;;21.52;46.74;102198.47;5097613;28;20196;-63
2022/07/06 01:50:08;;;;;;;2.73;1.50;;;18.60;61.30;;;21.51;46.83;102194.97;5097884;28;20203;-63
2022/07/06 01:52:35;;;;;;;2.90;1.50;;;18.60;61.50;;;21.51;46.67;102205.69;5096528;28;20312;-63
2022/07/06 01:55:05;;;;;;;3.47;1.40;;;18.60;61.60;;;21.50;46.47;102197.84;5096640;28;20207;-63
2022/07/06 01:57:33;;;;;;;3.20;1.53;;;18.60;61.60;;;21.46;46.82;102200.16;5096928;28;20531;-63
2022/07/06 02:00:00;;;;;;;3.17;1.30;;;18.60;61.50;;;21.43;47.19;102199.72;5096975;28;20193;-64
2022/07/06 02:02:28;;;;;;;6.13;1.70;;;18.60;61.60;;;21.39;47.28;102204.69;5096672;28;20714;-64
2022/07/06 02:04:58;;;;;;;3.93;1.80;;;18.60;61.90;;;21.36;47.00;102204.28;5095647;28;20189;-64
2022/07/06 02:07:28;;;;;;;4.13;1.70;;;18.50;61.90;;;21.32;47.31;102200.38;5095103;28;20200;-64
2022/07/06 02:09:56;;;;;;;3.97;1.60;;;18.50;62.10;;;21.29;47.41;102206.16;5095933;28;20189;-64
2022/07/06 02:12:24;;;;;;;3.20;1.50;;;18.50;62.30;;;21.30;47.19;102208.59;5094118;28;20220;-64
2022/07/06 02:14:52;;;;;;;2.47;1.40;;;18.50;62.40;;;21.31;47.33;102204.91;5095905;28;20184;-63
2022/07/06 02:17:19;;;;;;;4.90;2.40;;;18.40;62.40;;;21.31;47.33;102204.91;5095960;28;20211;-63
2022/07/06 02:19:46;;;;;;;4.60;1.87;;;18.40;62.60;;;21.30;47.65;102203.25;5095675;28;20192;-63
2022/07/06 02:22:13;;;;;;;3.90;2.00;;;18.40;62.40;;;21.31;47.78;102202.22;5094831;28;20313;-61
2022/07/06 02:24:41;;;;;;;5.10;1.77;;;18.40;62.40;;;21.33;47.62;102202.84;5095675;28;20218;-64
2022/07/06 02:27:08;;;;;;;3.57;1.57;;;18.40;62.60;;;21.34;47.33;102201.81;5095932;28;20196;-63
2022/07/06 02:29:37;;;;;;;4.10;1.73;;;18.40;62.50;;;21.34;47.31;102192.97;5096265;28;20192;-64
2022/07/06 02:32:05;;;;;;;3.60;1.90;;;18.50;62.60;;;21.34;47.45;102193.78;5094954;28;20220;-64
2022/07/06 02:34:32;;;;;;;4.80;1.70;;;18.50;62.60;;;21.33;48.05;102200.16;5095272;28;20212;-64
2022/07/06 02:37:00;;;;;;;3.47;1.57;;;18.50;62.90;;;21.32;47.83;102200.38;5094975;28;20275;-64
2022/07/06 02:39:27;;;;;;;5.40;2.00;;;18.40;62.90;;;21.33;47.72;102192.13;5094882;28;20226;-64
2022/07/06 02:41:55;;;;;;;3.93;1.60;;;18.50;63.10;;;21.36;48.07;102197.06;5094746;28;20646;-63
2022/07/06 02:44:22;;;;;;;2.57;1.57;;;18.50;63.10;;;21.36;47.56;102206.97;5095410;28;20189;-64
2022/07/06 02:46:51;;;;;;;2.90;1.50;;;18.50;63.00;;;21.32;47.75;102201.19;5095271;28;20196;-64
2022/07/06 02:49:18;;;;;;;3.77;1.70;;;18.50;62.90;;;21.27;47.49;102209.06;5094658;28;20188;-64
2022/07/06 02:51:45;;;;;;;3.47;1.50;;;18.40;62.90;;;21.24;47.46;102212.13;5094388;28;20221;-64
2022/07/06 02:54:13;;;;;;;3.57;1.40;;;18.40;62.90;;;21.17;47.59;102203.28;5094506;28;20199;-64
2022/07/06 02:56:40;;;;;;;4.20;1.80;;;18.30;62.90;;;21.12;48.21;102200.41;5094626;28;20523;-64
2022/07/06 02:59:09;;;;;;;2.60;1.50;;;18.30;62.90;;;21.12;47.80;102205.75;5094541;28;20235;-64
2022/07/06 03:01:40;;;;;;;6.77;2.10;;;18.30;63.40;;;21.12;47.96;102203.09;5093823;28;20215;-63
2022/07/06 03:04:09;;;;;;;4.17;1.83;;;18.30;63.50;;;21.11;48.33;102212.13;5094618;28;20240;-63
2022/07/06 03:06:36;;;;;;;3.07;2.07;;;18.20;64.60;;;21.10;48.25;102213.19;5094406;28;20627;-62
2022/07/06 03:09:04;;;;;;;4.60;1.60;;;18.20;64.00;;;21.12;48.66;102208.44;5094657;28;20189;-62
2022/07/06 03:11:34;;;;;;;4.87;1.90;;;18.20;64.00;;;21.14;48.30;102214.41;5093509;28;20231;-63
2022/07/06 03:14:02;;;;;;;1.60;1.40;;;18.20;64.00;;;21.16;48.74;102220.38;5094447;28;20184;-63
2022/07/06 03:16:30;;;;;;;4.90;1.63;;;18.30;64.40;;;21.15;48.76;102221.44;5094444;28;20193;-63
2022/07/06 03:18:58;;;;;;;4.77;2.03;;;18.20;64.30;;;21.09;48.28;102222.25;5094060;28;20254;-63
2022/07/06 03:21:26;;;;;;;4.17;1.60;;;18.20;64.10;;;21.06;48.38;102222.66;5093533;28;20558;-64
2022/07/06 03:23:54;;;;;;;5.43;1.70;;;18.20;64.40;;;21.06;48.94;102222.66;5094420;28;20192;-64
2022/07/06 03:26:21;;;;;;;3.87;1.80;;;18.20;64.40;;;21.03;48.56;102223.06;5094633;28;20196;-63
2022/07/06 03:28:49;;;;;;;4.27;2.00;;;18.20;64.40;;;21.02;49.09;102215.19;5093963;28;20231;-63
2022/07/06 03:31:16;;;;;;;4.53;2.07;;;18.20;64.30;;;21.01;48.55;102224.28;5093853;28;20333;-63
2022/07/06 03:33:44;;;;;;;3.00;1.77;;;18.20;64.60;;;20.99;48.97;102221.78;5093924;28;20513;-61
2022/07/06 03:36:11;;;;;;;3.93;1.60;;;18.10;64.50;;;21.01;49.16;102213.56;5094027;28;20193;-64
2022/07/06 03:38:40;;;;;;;6.53;2.23;;;18.10;64.70;;;21.01;48.67;102224.28;5093711;28;20203;-63
2022/07/06 03:41:07;;;;;;;5.10;1.93;;;18.10;64.60;;;21.02;48.46;102226.75;5093359;28;20205;-63
2022/07/06 03:43:35;;;;;;;5.37;1.70;;;18.10;64.50;;;20.98;48.48;102220.16;5093007;28;20237;-64
2022/07/06 03:46:02;;;;;;;3.37;1.60;;;18.10;64.30;;;20.96;48.40;102221.41;5093447;28;20196;-63
2022/07/06 03:48:29;;;;;;;3.50;1.47;;;18.10;64.20;;;20.98;48.83;102216.66;5093324;28;20188;-64
2022/07/06 03:50:56;;;;;;;2.60;1.53;;;18.10;64.80;;;21.00;48.83;102215.41;5093360;28;20204;-64
2022/07/06 03:53:24;;;;;;;4.57;1.90;;;18.10;64.50;;;21.03;48.90;102219.53;5094021;28;20200;-63
2022/07/06 03:58:39;;;;;;;4.10;1.60;;;18.10;64.50;;;21.01;48.32;102214.41;5093659;28;20188;-63
2022/07/06 04:01:06;;;;;;;4.07;1.63;;;18.10;64.30;;;21.01;48.43;102211.72;5092987;28;20577;-63
2022/07/06 04:03:33;;;;;;;4.67;1.60;;;18.10;64.40;;;21.01;48.30;102214.41;5093051;28;20254;-63
2022/07/06 04:06:01;;;;;;;5.83;1.50;;;18.10;64.20;;;21.01;48.37;102214.41;5093791;28;20199;-63
2022/07/06 04:08:28;;;;;;;4.37;1.90;;;18.10;64.20;;;20.98;48.65;102220.16;5093316;28;20534;-63
2022/07/06 04:10:57;;;;;;;2.97;1.40;;;18.10;64.10;;;20.96;48.27;102222.22;5093273;28;20188;-64
2022/07/06 04:13:27;;;;;;;3.37;1.73;;;18.10;64.90;;;20.93;48.73;102218.09;5093379;28;20223;-64
2022/07/06 04:15:54;;;;;;;2.83;1.70;;;18.10;64.20;;;20.91;48.98;102219.34;5093579;28;20531;-63
2022/07/06 04:18:22;;;;;;;4.40;1.97;;;18.10;64.40;;;20.92;48.69;102220.97;5092590;28;20241;-63
2022/07/06 04:20:50;;;;;;;4.73;1.60;;;18.00;64.40;;;20.94;48.42;102218.94;5092534;28;20196;-65
2022/07/06 04:23:17;;;;;;;3.90;1.83;;;18.00;64.40;;;20.94;48.81;102218.94;5093013;28;20195;-64
2022/07/06 04:25:45;;;;;;;4.97;1.80;;;18.00;64.30;;;20.95;48.76;102220.56;5093045;28;20216;-63
2022/07/06 04:28:14;;;;;;;2.93;1.63;;;18.00;64.20;;;20.96;48.63;102222.22;5093310;28;20220;-65
2022/07/06 04:30:41;;;;;;;3.80;2.00;;;18.00;64.20;;;20.96;48.82;102224.91;5096010;28;20199;-64
2022/07/06 04:33:09;;;;;;;4.73;1.90;;;18.00;64.30;;;20.97;48.26;102221.19;5097327;28;20223;-63
2022/07/06 04:35:36;;;;;;;2.73;2.23;;;18.00;64.40;;;20.98;48.27;102222.00;5096674;28;20198;-64
2022/07/06 04:38:04;;;;;;;4.63;2.03;;;18.00;64.20;;;20.98;48.47;102225.53;5097147;28;20302;-64
2022/07/06 04:40:32;;;;;;;3.40;1.47;;;18.10;64.20;;;20.98;48.56;102219.34;5096944;28;20199;-64
2022/07/06 04:43:00;;;;;;;2.60;1.47;;;18.10;64.00;;;20.99;48.12;102221.78;5097066;28;20219;-64
2022/07/06 04:45:29;;;;;;;4.87;1.80;;;18.10;64.10;;;21.04;48.57;102227.34;5097151;28;20192;-64
2022/07/06 04:47:57;;;;;;;4.27;1.97;;;18.10;64.20;;;21.06;48.04;102222.66;5096946;28;20185;-64
2022/07/06 04:50:25;;;;;;;4.23;1.70;;;18.10;63.90;;;21.06;47.94;102217.28;5096389;28;20189;-64
2022/07/06 04:52:52;;;;;;;3.63;1.87;;;18.10;63.70;;;21.08;48.41;102225.97;5096029;28;20216;-64
2022/07/06 04:55:19;;;;;;;3.17;1.50;;;18.10;63.70;;;21.13;48.13;102220.00;5096519;28;20200;-64
2022/07/06 04:57:47;;;;;;;3.17;2.13;;;18.10;63.60;;;21.17;47.73;102219.38;5096539;28;20189;-63
2022/07/06 05:00:15;;;;;;;4.10;1.80;;;18.20;63.70;;;21.26;48.16;102222.63;5096664;28;20812;-63
2022/07/06 05:02:44;;;;;;;2.40;1.20;;;18.20;63.70;;;21.30;47.43;102224.69;5095916;28;20204;-64
2022/07/06 05:05:11;;;;;;;2.40;1.43;;;18.30;63.30;;;21.34;47.84;102220.56;5096386;28;20295;-64
2022/07/06 05:07:39;;;;;;;3.47;1.60;;;18.30;63.20;;;21.39;47.72;102226.13;5096225;28;20517;-63
2022/07/06 05:10:09;;;;;;;2.97;1.90;;;18.30;63.00;;;21.45;46.88;102222.59;5094931;28;20224;-63
2022/07/06 05:12:38;;;;;;;2.47;1.53;;;18.40;62.70;;;21.51;47.12;102220.94;5094969;28;20212;-63
2022/07/06 05:15:07;;;;;;;3.60;1.73;;;18.40;62.20;;;21.56;46.91;102232.66;5096516;28;20670;-64
2022/07/06 05:17:34;;;;;;;3.30;1.80;;;18.50;62.20;;;21.66;46.15;102234.09;5095883;28;20192;-64
2022/07/06 05:20:05;;;;;;;3.77;1.57;;;18.60;61.70;;;21.69;46.50;102233.66;5096027;28;20200;-64
2022/07/06 05:22:32;;;;;;;5.23;1.60;;;18.60;61.30;;;21.72;46.54;102233.25;5095492;27;20204;-64
2022/07/06 05:25:00;;;;;;;2.97;1.40;;;18.60;61.10;;;21.73;46.08;102232.25;5096408;28;20196;-62
2022/07/06 05:27:27;;;;;;;3.83;1.90;;;18.70;61.00;;;21.76;46.13;102229.94;5110353;28;20211;-64
2022/07/06 05:29:55;;;;;;;4.13;1.33;;;18.70;60.70;;;21.79;45.59;102228.69;5094154;28;20195;-64
2022/07/06 05:32:22;;;;;;;5.03;1.93;;;18.70;60.30;;;21.82;45.49;102225.59;5094660;28;20213;-64
2022/07/06 05:34:50;;;;;;;6.13;1.60;;;18.80;60.50;;;21.88;45.52;102222.09;5095698;28;20192;-69
2022/07/06 05:37:19;;;;;;;2.87;1.37;;;18.80;60.10;;;21.89;45.09;102223.75;5096939;28;20194;-63
2022/07/06 05:39:49;;;;;;;2.83;1.47;;;18.80;59.90;;;21.93;45.53;102224.97;5095818;28;20256;-64
2022/07/06 05:42:16;;;;;;;3.63;1.73;;;18.80;59.90;;;21.97;45.15;102226.16;5094834;28;20566;-64
2022/07/06 05:44:44;;;;;;;4.80;1.57;;;18.90;59.60;;;21.99;44.58;102232.13;5095687;28;20192;-63
2022/07/06 05:50:12;;;;;;;2.70;1.30;;;18.90;59.50;;;22.13;44.88;102231.88;5094981;28;20188;-64
2022/07/06 05:52:43;;;;;;;1.33;1.13;;;19.00;59.50;;;22.15;44.58;102235.19;5095035;28;20212;-63
2022/07/06 05:55:12;;;;;;;2.07;1.10;;;19.00;59.10;;;22.18;44.38;102241.94;5095192;28;20223;-64
2022/07/06 05:57:42;;;;;;;2.13;1.30;;;19.10;59.10;;;22.22;44.55;102245.88;5094540;28;20208;-64
2022/07/06 06:00:11;;;;;;;3.90;1.63;;;19.10;59.20;;;22.29;44.36;102243.97;5094720;28;20200;-64
2022/07/06 06:02:40;;;;;;;2.73;1.37;;;19.20;59.10;;;22.38;44.29;102245.38;5094769;28;20231;-65
2022/07/06 06:05:10;;;;;;;2.73;1.70;;;19.20;59.10;;;22.48;44.03;102250.28;5094707;28;20562;-63
2022/07/06 06:07:40;;;;;;;6.27;1.50;;;19.30;58.70;;;22.48;44.12;102250.28;5094468;28;20181;-63
2022/07/06 06:10:11;;;;;;;3.67;1.70;;;19.30;58.60;;;22.44;43.77;102255.22;5095268;28;20193;-63
2022/07/06 06:12:39;;;;;;;4.13;1.80;;;19.40;58.60;;;22.41;44.07;102244.94;5094707;28;20217;-64
2022/07/06 06:15:08;;;;;;;3.53;1.40;;;19.40;58.60;;;22.40;44.06;102254.03;5094416;28;20188;-63
2022/07/06 06:17:37;;;;;;;2.40;1.20;;;19.40;58.50;;;22.40;43.95;102256.72;5094243;28;20200;-64
2022/07/06 06:20:07;;;;;;;2.00;1.33;;;19.40;58.50;;;22.43;43.85;102253.59;5094252;28;20193;-64
2022/07/06 06:22:47;;;;;;;5.33;1.70;;;19.40;58.50;;;22.44;44.17;102254.44;5094138;28;20216;-64
2022/07/06 06:25:16;;;;;;;4.67;1.50;;;19.40;58.60;;;22.45;43.63;102251.53;5094000;28;20191;-63
2022/07/06 06:27:44;;;;;;;3.60;1.30;;;19.40;58.10;;;22.43;43.67;102253.59;5095107;28;20259;-64
2022/07/06 06:30:13;;;;;;;4.20;1.80;;;19.40;58.00;;;22.44;43.34;102254.44;5094545;28;20534;-64
2022/07/06 06:32:43;;;;;;;3.27;1.50;;;19.40;58.20;;;22.48;43.59;102256.47;5093716;28;20216;-63
2022/07/06 06:35:11;;;;;;;5.37;1.60;;;19.40;58.00;;;22.53;43.51;102253.97;5094614;28;20572;-64
2022/07/06 06:37:38;;;;;;;2.73;1.40;;;19.40;57.90;;;22.56;43.18;102258.88;5094312;28;20650;-64
2022/07/06 06:40:09;;;;;;;4.97;2.07;;;19.40;57.70;;;22.55;43.25;102259.94;5094299;28;20225;-64
2022/07/06 06:42:37;;;;;;;4.17;1.43;;;19.40;57.70;;;22.60;43.43;102253.91;5093435;28;20212;-64
2022/07/06 06:45:06;;;;;;;3.10;1.63;;;19.50;57.80;;;22.66;43.30;102251.22;5093916;28;20233;-64
2022/07/06 06:47:34;;;;;;;1.83;1.33;;;19.50;57.80;;;22.70;43.10;102246.25;5094164;28;20569;-64
2022/07/06 06:50:01;;;;;;;6.30;1.80;;;19.50;57.60;;;22.72;42.85;102252.22;5093939;28;20515;-63
2022/07/06 06:52:29;;;;;;;4.67;1.57;;;19.60;57.70;;;22.74;42.96;102248.28;5107943;28;20252;-64
2022/07/06 06:55:09;;;;;;;3.37;1.43;;;19.60;57.70;;;22.76;42.95;102248.88;5093955;28;20618;-64
2022/07/06 06:57:36;;;;;;;4.17;1.70;;;19.70;57.60;;;22.84;43.04;102248.59;5093664;28;20200;-64
2022/07/06 07:00:06;;;;;;;3.20;1.77;;;19.70;57.60;;;22.98;42.87;102256.56;5094029;28;20199;-65
2022/07/06 07:02:33;;;;;;;5.90;1.57;;;19.80;57.70;;;23.11;42.45;102251.06;5093928;28;20214;-64
2022/07/06 07:05:01;;;;;;;5.13;1.40;;;19.80;56.90;;;23.22;42.04;102263.78;5094120;28;20242;-63
2022/07/06 07:07:28;;;;;;;3.93;1.50;;;19.90;56.70;;;23.26;42.03;102257.75;5094781;28;20192;-64
2022/07/06 07:09:56;;;;;;;1.80;1.47;;;20.10;56.70;;;23.32;41.69;102264.13;5094170;28;20191;-64
2022/07/06 07:12:25;;;;;;;4.63;1.43;;;20.10;56.00;;;23.40;41.31;102261.16;5093714;28;20344;-64
2022/07/06 07:14:52;;;;;;;2.47;1.33;;;20.20;55.90;;;23.47;41.23;102261.91;5094779;28;20291;-64
2022/07/06 07:17:20;;;;;;;4.20;1.20;;;20.20;55.40;;;23.52;40.82;102264.78;5094264;28;20193;-64
2022/07/06 07:19:48;;;;;;;2.13;1.20;;;20.30;55.00;;;23.54;40.67;102273.44;5093176;28;20291;-64
2022/07/06 07:22:15;;;;;;;3.47;1.20;;;20.30;54.80;;;23.59;41.05;102273.59;5108313;28;20216;-62
2022/07/06 07:24:43;;;;;;;4.43;1.63;;;20.40;55.10;;;23.76;40.72;102276.50;5093796;28;20188;-64
2022/07/06 07:27:10;;;;;;;4.03;1.40;;;20.50;55.20;;;23.94;40.00;102274.63;5094388;28;20665;-64
2022/07/06 07:29:39;;;;;;;2.93;1.20;;;20.50;55.50;;;23.96;39.63;102272.53;5092389;27;20208;-64
2022/07/06 07:32:07;;;;;;;4.73;1.90;;;20.60;54.30;;;23.92;40.06;102279.41;5108763;28;20212;-64
2022/07/06 07:34:34;;;;;;;3.67;1.50;;;20.60;54.20;;;23.89;39.62;102290.63;5108116;28;20208;-63
2022/07/06 07:37:02;;;;;;;4.87;1.30;;;20.60;53.40;;;23.85;39.74;102281.38;5093430;28;20198;-63
2022/07/06 07:39:30;;;;;;;6.53;4.90;;;20.70;53.30;;;23.88;39.60;102291.69;5092466;28;20192;-65
2022/07/06 07:41:57;;;;;;;3.23;1.67;;;20.70;53.50;;;23.93;39.45;102283.78;5092826;28;20212;-63
2022/07/06 07:44:27;;;;;;;2.03;1.30;;;20.70;52.90;;;23.96;39.03;102288.69;5093156;28;20726;-63
2022/07/06 07:46:55;;;;;;;2.93;1.00;;;20.80;53.60;;;23.94;38.91;102290.78;5087725;28;20590;-64
2022/07/06 07:49:23;;;;;;;2.43;1.20;;;20.70;53.30;;;23.91;39.23;102291.25;5072708;28;20185;-62
2022/07/06 07:51:51;;;;;;;2.97;1.27;;;20.70;52.80;;;23.91;39.27;102296.63;5072845;28;20299;-64
2022/07/06 07:54:18;;;;;;;1.80;1.33;;;20.80;53.00;;;23.89;39.29;102287.94;5073063;28;20512;-64
2022/07/06 07:56:46;;;;;;;3.37;1.40;;;20.70;52.80;;;23.84;39.21;102285.13;5095478;28;20651;-64
2022/07/06 07:59:14;;;;;;;2.00;1.03;;;20.70;52.60;;;23.79;38.79;102293.03;5094867;28;20196;-64
2022/07/06 08:01:41;;;;;;;3.63;1.10;;;20.70;52.00;;;23.74;38.77;102292.06;5092991;28;20236;-63
2022/07/06 08:04:10;;;;;;;3.07;1.20;;;20.70;52.00;;;23.72;38.99;102292.28;5092674;28;20188;-62
2022/07/06 08:06:38;;;;;;;3.63;1.23;;;20.60;52.00;;;23.70;38.97;102288.97;5093190;28;20287;-65
2022/07/06 08:09:07;;;;;;;3.23;1.70;;;20.60;52.20;;;23.76;39.04;102295.34;5093140;28;20196;-63
2022/07/06 08:11:34;;;;;;;2.67;2.17;;;20.70;52.60;;;23.84;39.04;102286.97;5092455;28;20238;-63
2022/07/06 08:14:03;;;;;;;2.57;2.30;;;20.70;52.70;;;23.92;38.90;102284.81;5092639;28;20227;-63
2022/07/06 08:16:31;;;;;;;3.70;1.20;;;20.70;52.60;;;24.08;38.79;102286.13;5091714;28;20606;-64
2022/07/06 08:18:59;;;;;;;3.20;1.43;;;20.80;52.60;;;24.30;38.61;102275.66;5092846;28;20704;-64
2022/07/06 08:21:34;;;;;;;7.07;1.60;;;20.90;52.40;;;24.58;38.21;102281.31;5091478;28;20257;-64
2022/07/06 08:24:02;;;;;;;3.97;1.50;;;21.00;52.00;;;24.79;37.72;102294.28;5092515;28;20226;-64
2022/07/06 08:26:33;;;;;;;2.57;1.30;;;21.20;51.20;;;24.91;36.57;102283.53;5093409;28;20185;-64
2022/07/06 08:29:04;;;;;;;2.10;0.90;;;21.30;50.30;;;24.99;36.84;102284.00;5092112;28;20203;-63
2022/07/06 08:31:34;;;;;;;2.87;1.20;;;21.40;50.10;;;25.02;36.67;102286.22;5091676;28;20638;-64
2022/07/06 08:34:25;;;;;;;8.10;1.00;;;21.50;50.10;;;25.00;36.44;102285.66;5092722;28;20204;-64
2022/07/06 08:37:01;;;;;;;2.83;1.23;;;21.50;49.80;;;25.11;36.38;102286.72;5088286;28;20267;-63
2022/07/06 08:39:29;;;;;;;6.67;1.47;;;21.60;50.10;;;25.30;36.35;102286.38;5087480;28;20743;-63
2022/07/06 08:42:01;;;;;;;1.00;0.93;;;21.70;49.60;;;25.52;35.67;102274.00;5086254;28;20243;-64
2022/07/06 08:44:36;;;;;;;4.07;1.40;;;21.90;49.80;;;25.69;35.66;102284.88;5091254;28;20200;-64
2022/07/06 08:47:07;;;;;;;1.90;1.10;;;22.00;49.20;;;25.79;34.89;102285.09;5090988;28;20189;-64
2022/07/06 08:49:36;;;;;;;2.07;0.90;;;22.10;48.40;;;25.85;35.06;102283.31;5091365;28;20189;-64
2022/07/06 08:52:07;;;;;;;2.07;0.97;;;22.20;48.10;;;25.92;34.03;102290.22;5089941;28;20689;-64
2022/07/06 08:54:37;;;;;;;1.47;1.10;;;22.30;47.10;;;25.94;34.34;102290.81;5094075;28;20646;-64
2022/07/06 08:57:05;;;;;;;3.77;1.47;;;22.40;46.80;;;26.04;33.86;102293.72;5088021;28;20188;-62
2022/07/06 08:59:34;;;;;;;2.13;1.10;;;22.50;47.00;;;26.16;34.13;102281.03;5090314;28;20275;-64
2022/07/06 09:02:03;;;;;;;3.23;1.23;;;22.50;46.40;;;26.18;33.34;102291.59;5084637;28;20567;-64
2022/07/06 09:04:35;;;;;;;3.07;1.33;;;22.50;46.00;;;26.17;32.96;102282.66;5085041;28;20697;-64
2022/07/06 09:07:04;;;;;;;2.07;1.03;;;22.60;45.70;;;26.17;33.08;102281.88;5109756;28;20191;-64
2022/07/06 09:09:33;;;;;;;1.20;0.90;;;22.70;45.80;;;26.14;33.76;102295.84;5106474;28;20199;-64
2022/07/06 09:12:01;;;;;;;2.20;1.13;;;22.70;45.50;;;26.19;33.36;102285.16;5092057;28;20219;-64
2022/07/06 09:14:31;;;;;;;3.60;1.10;;;22.70;45.30;;;26.33;33.15;102281.09;5091110;28;20204;-64
2022/07/06 09:17:04;;;;;;;2.67;1.33;;;22.80;45.60;;;26.57;32.76;102290.75;5095765;28;20191;-64
2022/07/06 09:19:33;;;;;;;1.73;1.20;;;22.90;45.30;;;26.90;32.18;102281.06;5095620;28;20200;-63
2022/07/06 09:22:02;;;;;;;3.47;1.33;;;22.90;44.70;;;27.26;31.74;102285.97;5095471;28;20219;-62
2022/07/06 09:24:34;;;;;;;3.27;1.50;;;23.20;44.60;;;27.33;31.45;102281.22;5098670;28;20196;-62
2022/07/06 09:27:04;;;;;;;2.13;0.93;;;23.30;44.20;;;27.25;31.44;102289.72;5103181;28;20189;-64
2022/07/06 09:29:32;;;;;;;5.63;3.10;;;23.40;43.70;;;27.10;31.83;102284.09;5095501;28;20195;-65
2022/07/06 09:32:03;;;;;;;2.13;1.33;;;23.50;44.20;;;27.02;32.14;102295.31;5092737;28;20199;-63
2022/07/06 09:34:45;;;;;;;2.40;1.33;;;23.50;44.70;;;26.70;33.11;102295.81;5111895;28;20528;-64
2022/07/06 09:37:14;;;;;;;3.07;2.23;;;23.40;45.00;;;26.48;33.68;102289.47;5095229;28;20208;-63
2022/07/06 09:39:44;;;;;;;3.90;1.87;;;23.30;45.50;;;26.44;34.18;102287.50;5095496;28;20192;-63
2022/07/06 09:42:12;;;;;;;5.17;1.60;;;23.20;46.00;;;26.68;33.24;102292.56;5095371;28;20219;-63
2022/07/06 09:44:41;;;;;;;6.27;1.93;;;23.10;45.90;;;26.86;33.21;102296.97;5095583;28;20181;-64
2022/07/06 09:47:11;;;;;;;4.20;1.50;;;23.10;45.60;;;26.89;32.67;102285.63;5094446;28;20654;-64
2022/07/06 09:49:39;;;;;;;3.13;1.43;;;23.20;45.20;;;26.84;32.11;102291.78;5075077;28;20623;-65
2022/07/06 09:52:09;;;;;;;4.20;1.30;;;23.20;44.50;;;26.68;31.87;102292.56;5083811;28;20212;-63
2022/07/06 09:54:39;;;;;;;2.63;0.87;;;23.10;43.50;;;26.50;31.81;102295.47;5094849;28;20299;-64
2022/07/06 09:57:08;;;;;;;1.57;0.80;;;23.10;43.60;;;26.39;32.61;102296.31;5095026;28;20204;-65
2022/07/06 09:59:37;;;;;;;2.70;1.10;;;23.00;43.60;;;26.48;32.05;102302.19;5095351;28;20200;-70
2022/07/06 10:02:08;;;;;;;4.87;1.63;;;23.00;43.90;;;26.90;32.09;102295.41;5095076;28;20683;-64
2022/07/06 10:04:36;;;;;;;1.83;1.00;;;23.00;44.20;;;27.99;30.27;102294.63;5095337;28;20264;-64
2022/07/06 10:07:07;;;;;;;1.50;0.83;;;23.20;43.60;;;28.60;29.51;102290.72;5095229;28;20244;-64
2022/07/06 10:09:35;;;;;;;2.63;1.10;;;23.60;43.00;;;28.93;28.97;102297.00;5094640;28;20189;-64
2022/07/06 10:12:05;;;;;;;3.27;1.80;;;24.00;42.10;;;29.45;28.39;102290.63;5094588;28;20212;-64
2022/07/06 10:14:34;;;;;;;4.37;0.80;;;24.40;41.50;;;29.98;26.95;102289.56;5093769;28;20240;-62
2022/07/06 10:17:06;;;;;;;1.27;0.97;;;24.70;40.60;;;30.38;26.80;102283.44;5094709;28;20327;-64
2022/07/06 10:19:34;;;;;;;3.80;1.40;;;25.10;39.70;;;31.16;25.79;102294.97;5095363;27;20547;-64
2022/07/06 10:22:04;;;;;;;1.53;1.27;;;25.50;39.40;;;32.31;24.83;102282.06;5093420;28;20212;-64
2022/07/06 10:24:34;;;;;;;1.80;1.10;;;26.00;39.10;;;33.58;23.33;102282.66;5105036;28;20187;-64